createdAt,value
2022-10-26T04:02:30.747Z,3.15
2022-10-26T04:06:33.393Z,3.33
2022-10-26T04:10:36.054Z,4.03
2022-10-26T04:14:38.593Z,2.70
2022-10-26T04:18:42.512Z,2.88
2022-10-26T04:22:45.146Z,3.10
2022-10-26T04:26:47.872Z,2.90
2022-10-26T04:30:50.545Z,3.70
2022-10-26T04:34:54.630Z,3.43
2022-10-26T04:38:57.222Z,3.47
2022-10-26T04:43:00.388Z,3.67
2022-10-26T04:47:02.971Z,3.53
2022-10-26T04:51:06.964Z,3.60
2022-10-26T04:55:09.616Z,3.70
2022-10-26T04:59:12.217Z,4.80
2022-10-26T05:03:14.798Z,4.10
2022-10-26T05:07:18.715Z,3.90
2022-10-26T05:11:21.301Z,3.78
2022-10-26T05:15:24.438Z,5.10
2022-10-26T05:19:26.994Z,3.20
2022-10-26T05:23:30.973Z,3.30
2022-10-26T05:27:33.630Z,3.55
2022-10-26T05:31:36.281Z,3.70
2022-10-26T05:35:39.217Z,2.97
2022-10-26T05:39:43.715Z,3.30
2022-10-26T05:43:48.490Z,3.80
2022-10-26T05:47:51.406Z,4.25
2022-10-26T05:51:54.190Z,3.35
2022-10-26T05:55:58.838Z,3.73
2022-10-26T06:00:02.009Z,4.22
2022-10-26T06:04:27.254Z,3.38
2022-10-26T06:08:30.750Z,3.60
2022-10-26T06:16:48.012Z,4.40
2022-10-26T06:20:58.736Z,3.47
2022-10-26T06:25:08.778Z,3.97
2022-10-26T06:29:23.461Z,4.95
2022-10-26T06:33:29.916Z,3.58
2022-10-26T06:37:33.511Z,4.45
2022-10-26T06:41:37.518Z,3.38
2022-10-26T06:45:46.387Z,3.70
2022-10-26T06:49:59.717Z,4.20
2022-10-26T06:54:09.588Z,3.70
2022-10-26T06:58:16.627Z,3.80
2022-10-26T07:02:21.312Z,3.75
2022-10-26T07:06:24.026Z,3.50
2022-10-26T07:10:26.659Z,3.87
2022-10-26T07:14:29.311Z,4.10
2022-10-26T07:18:33.451Z,3.55
2022-10-26T07:22:36.056Z,3.65
2022-10-26T07:26:38.612Z,4.32
2022-10-26T07:30:41.504Z,5.17
2022-10-26T07:34:45.476Z,5.47
2022-10-26T07:38:48.102Z,5.65
2022-10-26T07:42:50.868Z,6.07
2022-10-26T07:46:53.543Z,5.60
2022-10-26T07:50:57.714Z,5.53
2022-10-26T07:55:00.293Z,4.65
2022-10-26T07:59:02.893Z,4.72
2022-10-26T08:03:05.477Z,6.63
2022-10-26T08:07:09.397Z,4.53
2022-10-26T08:11:12.006Z,4.28
2022-10-26T08:15:14.673Z,5.03
2022-10-26T08:19:17.254Z,5.70
2022-10-26T08:23:21.259Z,4.07
2022-10-26T08:27:23.975Z,4.65
2022-10-26T08:31:26.630Z,3.90
2022-10-26T08:35:29.443Z,4.50
2022-10-26T08:39:33.486Z,3.85
2022-10-26T08:43:41.875Z,3.55
2022-10-26T08:47:48.836Z,3.35
2022-10-26T08:51:55.968Z,3.78
2022-10-26T08:56:04.952Z,3.53
2022-10-26T09:00:12.283Z,3.58
2022-10-26T09:04:14.912Z,3.58
2022-10-26T09:08:26.638Z,3.33
2022-10-26T09:12:41.811Z,3.20
2022-10-26T09:16:55.722Z,3.47
2022-10-26T09:21:08.192Z,2.78
2022-10-26T09:25:19.518Z,3.05
2022-10-26T09:29:28.639Z,2.55
2022-10-26T09:33:36.308Z,2.55
2022-10-26T09:37:45.101Z,2.80
2022-10-26T09:41:53.538Z,2.50
2022-10-26T09:45:57.568Z,2.05
2022-10-26T09:50:08.009Z,2.22
2022-10-26T09:54:16.282Z,2.00
2022-10-26T09:58:24.188Z,1.73
2022-10-26T10:02:40.125Z,2.10
2022-10-26T10:06:44.369Z,1.85
2022-10-26T10:10:56.101Z,1.60
2022-10-26T10:15:00.535Z,1.73
2022-10-26T10:19:04.595Z,1.45
2022-10-26T10:23:07.305Z,1.48
2022-10-26T10:27:18.826Z,1.60
2022-10-26T10:31:23.599Z,1.60
2022-10-26T10:35:31.392Z,1.50
2022-10-26T10:39:39.918Z,1.33
2022-10-26T10:43:46.151Z,1.20
2022-10-26T10:48:01.704Z,1.90
2022-10-26T10:52:05.773Z,1.50
2022-10-26T10:56:28.206Z,1.75
2022-10-26T11:00:34.476Z,1.70
2022-10-26T11:04:53.939Z,1.48
2022-10-26T11:09:03.851Z,1.30
2022-10-26T11:13:16.435Z,1.50
2022-10-26T11:17:23.043Z,1.33
2022-10-26T11:21:29.925Z,1.67
2022-10-26T11:25:38.372Z,1.48
2022-10-26T11:29:48.842Z,1.23
2022-10-26T11:34:07.248Z,1.60
2022-10-26T11:38:23.903Z,1.27
2022-10-26T11:42:42.932Z,1.88
2022-10-26T11:46:50.719Z,1.65
2022-10-26T11:50:57.798Z,2.30
2022-10-26T11:55:02.230Z,1.52
2022-10-26T11:59:07.221Z,1.35
2022-10-26T12:03:14.629Z,1.30
2022-10-26T12:07:25.628Z,1.45
2022-10-26T12:11:43.022Z,1.58
2022-10-26T12:16:02.930Z,1.52
2022-10-26T12:20:24.599Z,1.60
2022-10-26T12:24:30.615Z,1.10
2022-10-26T12:28:42.831Z,1.70
2022-10-26T12:32:56.430Z,1.20
2022-10-26T12:37:23.119Z,1.60
2022-10-26T12:41:27.342Z,1.90
2022-10-26T12:45:29.925Z,1.60
2022-10-26T12:50:02.306Z,2.58
2022-10-26T12:54:22.983Z,1.70
2022-10-26T12:59:04.910Z,1.40
2022-10-26T13:03:23.647Z,1.67
2022-10-26T13:07:28.527Z,1.40
2022-10-26T13:11:35.538Z,1.58
2022-10-26T13:15:40.597Z,1.30
2022-10-26T13:19:48.005Z,1.63
2022-10-26T13:24:01.499Z,1.40
2022-10-26T13:28:27.382Z,1.70
2022-10-26T13:32:30.732Z,1.75
2022-10-26T13:36:37.998Z,1.85
2022-10-26T13:40:41.291Z,1.40
2022-10-26T13:48:50.917Z,2.35
2022-10-26T13:52:56.491Z,1.70
2022-10-26T13:57:06.991Z,1.60
2022-10-26T14:01:18.023Z,1.58
2022-10-26T14:05:20.711Z,1.67
2022-10-26T14:09:24.024Z,1.80
2022-10-26T14:13:29.710Z,1.80
2022-10-26T14:17:34.398Z,1.85
2022-10-26T14:21:43.015Z,2.10
2022-10-26T14:25:58.938Z,1.90
2022-10-26T14:30:21.446Z,2.00
2022-10-26T14:34:26.396Z,1.67
2022-10-26T14:38:35.478Z,2.00
2022-10-26T14:42:44.778Z,1.70
2022-10-26T14:46:48.181Z,1.70
2022-10-26T14:51:02.752Z,2.10
2022-10-26T14:55:14.496Z,1.70
2022-10-26T14:59:23.058Z,2.05
2022-10-26T15:03:25.987Z,2.50
2022-10-26T15:07:37.681Z,2.05
2022-10-26T15:11:44.700Z,1.98
2022-10-26T15:15:49.882Z,1.95
2022-10-26T15:19:53.923Z,2.00
2022-10-26T15:23:59.142Z,2.05
2022-10-26T15:28:10.840Z,2.40
2022-10-26T15:32:29.082Z,2.20
2022-10-26T15:36:33.457Z,2.33
2022-10-26T15:40:43.377Z,2.42
2022-10-26T15:44:46.298Z,1.98
2022-10-26T15:48:54.959Z,2.03
2022-10-26T15:53:01.825Z,2.33
2022-10-26T16:01:16.801Z,2.80
2022-10-26T16:05:19.522Z,2.22
2022-10-26T16:09:22.153Z,2.00
2022-10-26T16:13:26.605Z,2.40
2022-10-26T16:17:29.345Z,2.60
2022-10-26T16:21:32.038Z,2.35
2022-10-26T16:25:42.907Z,2.63
2022-10-26T16:29:46.830Z,2.60
2022-10-26T16:33:49.575Z,2.58
2022-10-26T16:37:52.195Z,2.25
2022-10-26T16:41:54.835Z,2.20
2022-10-26T16:45:58.852Z,2.20
2022-10-26T16:50:01.472Z,2.00
2022-10-26T16:54:04.228Z,2.03
2022-10-26T16:58:08.019Z,2.00
2022-10-26T17:02:14.646Z,1.92
2022-10-26T17:06:18.449Z,2.67
2022-10-26T17:10:21.066Z,2.10
2022-10-26T17:14:23.683Z,2.40
2022-10-26T17:18:27.732Z,2.97
2022-10-26T17:22:30.312Z,5.60
2022-10-26T17:26:33.057Z,8.77
2022-10-26T17:30:36.083Z,5.20
2022-10-26T17:34:40.027Z,6.68
2022-10-26T17:38:43.403Z,10.52
2022-10-26T17:46:48.554Z,10.73
2022-10-26T17:50:52.650Z,9.10
2022-10-26T17:54:58.057Z,8.07
2022-10-26T17:59:05.688Z,4.75
2022-10-26T18:03:08.406Z,4.10
2022-10-26T18:07:12.494Z,7.73
2022-10-26T18:11:19.072Z,6.93
2022-10-26T18:15:24.763Z,5.90
2022-10-26T18:19:27.465Z,7.05
2022-10-26T18:23:31.459Z,5.20
2022-10-26T18:27:34.052Z,5.30
2022-10-26T18:31:36.757Z,4.70
2022-10-26T18:35:39.379Z,5.38
2022-10-26T18:39:43.318Z,4.50
2022-10-26T18:43:49.247Z,4.90
2022-10-26T18:47:52.192Z,5.70
2022-10-26T18:51:55.177Z,5.43
2022-10-26T18:56:02.616Z,5.13
2022-10-26T19:00:05.992Z,5.05
2022-10-26T19:04:10.336Z,6.35
2022-10-26T19:08:12.942Z,12.63
2022-10-26T19:12:16.962Z,10.53
2022-10-26T19:16:40.715Z,8.45
2022-10-26T19:20:46.611Z,6.72
2022-10-26T19:24:50.300Z,6.68
2022-10-26T19:28:57.346Z,7.00
2022-10-26T19:33:00.754Z,9.13
2022-10-26T19:37:05.209Z,8.00
2022-10-26T19:45:12.527Z,11.27
2022-10-26T19:49:17.384Z,9.50
2022-10-26T19:53:21.325Z,9.82
2022-10-26T19:57:23.916Z,9.43
2022-10-26T20:01:28.350Z,10.77
2022-10-26T20:05:31.585Z,11.38
2022-10-26T20:09:34.364Z,11.40
2022-10-26T20:13:37.610Z,10.35
2022-10-26T20:21:49.169Z,8.98
2022-10-26T20:25:52.810Z,7.00
2022-10-26T20:29:55.448Z,8.20
2022-10-26T20:33:59.385Z,7.20
2022-10-26T20:38:02.827Z,7.35
2022-10-26T20:46:11.484Z,8.98
2022-10-26T20:50:16.839Z,8.10
2022-10-26T20:54:24.954Z,7.10
2022-10-26T20:58:40.753Z,9.02
